sensor_id;sensor_type;location;lat;lon;timestamp;P1;durP1;ratioP1;P2;durP2;ratioP2
18661;SDS011;61528;49.456;11.098;2023-01-15T00:02:09;1.60;;;1.07;;
18661;SDS011;61528;49.456;11.098;2023-01-15T00:04:37;1.80;;;1.10;;
18661;SDS011;61528;49.456;11.098;2023-01-15T00:07:03;2.07;;;1.10;;
18661;SDS011;61528;49.456;11.098;2023-01-15T00:09:29;1.13;;;0.80;;
18661;SDS011;61528;49.456;11.098;2023-01-15T00:11:55;1.77;;;1.00;;
18661;SDS011;61528;49.456;11.098;2023-01-15T00:14:21;1.57;;;1.17;;
18661;SDS011;61528;49.456;11.098;2023-01-15T00:16:51;1.40;;;0.80;;
18661;SDS011;61528;49.456;11.098;2023-01-15T00:19:17;1.27;;;1.10;;
18661;SDS011;61528;49.456;11.098;2023-01-15T00:21:43;1.43;;;0.87;;
18661;SDS011;61528;49.456;11.098;2023-01-15T00:24:09;2.27;;;1.10;;
18661;SDS011;61528;49.456;11.098;2023-01-15T00:26:54;1.53;;;0.80;;
18661;SDS011;61528;49.456;11.098;2023-01-15T00:29:38;1.73;;;1.00;;
18661;SDS011;61528;49.456;11.098;2023-01-15T00:32:05;2.43;;;1.00;;
18661;SDS011;61528;49.456;11.098;2023-01-15T00:34:32;2.93;;;1.10;;
18661;SDS011;61528;49.456;11.098;2023-01-15T00:36:58;1.00;;;0.70;;
18661;SDS011;61528;49.456;11.098;2023-01-15T00:39:24;1.07;;;0.90;;
18661;SDS011;61528;49.456;11.098;2023-01-15T00:41:51;1.60;;;0.83;;
18661;SDS011;61528;49.456;11.098;2023-01-15T00:44:17;1.00;;;0.90;;
18661;SDS011;61528;49.456;11.098;2023-01-15T00:46:44;2.00;;;0.97;;
18661;SDS011;61528;49.456;11.098;2023-01-15T00:49:10;1.93;;;0.90;;
18661;SDS011;61528;49.456;11.098;2023-01-15T00:51:36;1.10;;;1.00;;
18661;SDS011;61528;49.456;11.098;2023-01-15T00:54:02;1.70;;;1.00;;
18661;SDS011;61528;49.456;11.098;2023-01-15T00:56:29;1.37;;;0.73;;
18661;SDS011;61528;49.456;11.098;2023-01-15T00:58:56;0.93;;;0.87;;
18661;SDS011;61528;49.456;11.098;2023-01-15T01:01:22;1.23;;;0.90;;
18661;SDS011;61528;49.456;11.098;2023-01-15T01:03:49;1.50;;;0.80;;
18661;SDS011;61528;49.456;11.098;2023-01-15T01:06:17;3.93;;;0.80;;
18661;SDS011;61528;49.456;11.098;2023-01-15T01:08:43;1.17;;;0.87;;
18661;SDS011;61528;49.456;11.098;2023-01-15T01:11:17;1.20;;;0.70;;
18661;SDS011;61528;49.456;11.098;2023-01-15T01:13:43;0.93;;;0.83;;
18661;SDS011;61528;49.456;11.098;2023-01-15T01:18:56;1.10;;;0.90;;
18661;SDS011;61528;49.456;11.098;2023-01-15T01:21:23;0.73;;;0.70;;
18661;SDS011;61528;49.456;11.098;2023-01-15T01:23:49;1.20;;;0.60;;
18661;SDS011;61528;49.456;11.098;2023-01-15T01:26:16;1.33;;;0.60;;
18661;SDS011;61528;49.456;11.098;2023-01-15T01:28:42;0.50;;;0.50;;
18661;SDS011;61528;49.456;11.098;2023-01-15T01:31:08;0.90;;;0.70;;
18661;SDS011;61528;49.456;11.098;2023-01-15T01:33:35;1.20;;;0.90;;
18661;SDS011;61528;49.456;11.098;2023-01-15T01:36:01;1.87;;;0.70;;
18661;SDS011;61528;49.456;11.098;2023-01-15T01:38:27;1.37;;;0.83;;
18661;SDS011;61528;49.456;11.098;2023-01-15T01:40:54;1.37;;;0.73;;
18661;SDS011;61528;49.456;11.098;2023-01-15T01:43:21;1.37;;;0.70;;
18661;SDS011;61528;49.456;11.098;2023-01-15T01:45:48;0.93;;;0.60;;
18661;SDS011;61528;49.456;11.098;2023-01-15T01:48:14;0.67;;;0.67;;
18661;SDS011;61528;49.456;11.098;2023-01-15T01:50:41;0.80;;;0.50;;
18661;SDS011;61528;49.456;11.098;2023-01-15T01:53:08;0.60;;;0.50;;
18661;SDS011;61528;49.456;11.098;2023-01-15T01:55:35;0.50;;;0.50;;
18661;SDS011;61528;49.456;11.098;2023-01-15T01:58:03;0.40;;;0.40;;
18661;SDS011;61528;49.456;11.098;2023-01-15T02:00:30;1.47;;;0.50;;
18661;SDS011;61528;49.456;11.098;2023-01-15T02:02:57;0.50;;;0.50;;
18661;SDS011;61528;49.456;11.098;2023-01-15T02:05:26;0.40;;;0.40;;
18661;SDS011;61528;49.456;11.098;2023-01-15T02:07:54;0.93;;;0.70;;
18661;SDS011;61528;49.456;11.098;2023-01-15T02:10:20;0.50;;;0.50;;
18661;SDS011;61528;49.456;11.098;2023-01-15T02:15:25;0.40;;;0.33;;
18661;SDS011;61528;49.456;11.098;2023-01-15T02:18:16;1.60;;;0.50;;
18661;SDS011;61528;49.456;11.098;2023-01-15T02:20:51;0.63;;;0.50;;
18661;SDS011;61528;49.456;11.098;2023-01-15T02:28:46;0.87;;;0.40;;
18661;SDS011;61528;49.456;11.098;2023-01-15T02:31:31;0.83;;;0.40;;
18661;SDS011;61528;49.456;11.098;2023-01-15T02:34:01;0.60;;;0.40;;
18661;SDS011;61528;49.456;11.098;2023-01-15T02:36:29;1.50;;;0.40;;
18661;SDS011;61528;49.456;11.098;2023-01-15T02:38:57;0.50;;;0.40;;
18661;SDS011;61528;49.456;11.098;2023-01-15T02:41:25;0.40;;;0.30;;
18661;SDS011;61528;49.456;11.098;2023-01-15T02:43:53;0.50;;;0.40;;
18661;SDS011;61528;49.456;11.098;2023-01-15T02:46:22;0.50;;;0.50;;
18661;SDS011;61528;49.456;11.098;2023-01-15T02:48:51;0.40;;;0.40;;
18661;SDS011;61528;49.456;11.098;2023-01-15T02:51:19;0.87;;;0.53;;
18661;SDS011;61528;49.456;11.098;2023-01-15T02:53:47;0.47;;;0.47;;
18661;SDS011;61528;49.456;11.098;2023-01-15T02:56:15;0.40;;;0.40;;
18661;SDS011;61528;49.456;11.098;2023-01-15T02:58:42;0.40;;;0.40;;
18661;SDS011;61528;49.456;11.098;2023-01-15T03:01:10;0.47;;;0.47;;
18661;SDS011;61528;49.456;11.098;2023-01-15T03:03:43;0.40;;;0.37;;
18661;SDS011;61528;49.456;11.098;2023-01-15T03:06:19;0.50;;;0.30;;
18661;SDS011;61528;49.456;11.098;2023-01-15T03:08:46;0.40;;;0.40;;
18661;SDS011;61528;49.456;11.098;2023-01-15T03:11:15;0.40;;;0.40;;
18661;SDS011;61528;49.456;11.098;2023-01-15T03:14:02;0.70;;;0.40;;
18661;SDS011;61528;49.456;11.098;2023-01-15T03:16:37;1.37;;;0.60;;
18661;SDS011;61528;49.456;11.098;2023-01-15T03:22:06;2.17;;;0.50;;
18661;SDS011;61528;49.456;11.098;2023-01-15T03:24:47;0.40;;;0.40;;
18661;SDS011;61528;49.456;11.098;2023-01-15T03:27:14;0.40;;;0.40;;
18661;SDS011;61528;49.456;11.098;2023-01-15T03:29:41;0.40;;;0.40;;
18661;SDS011;61528;49.456;11.098;2023-01-15T03:32:08;0.30;;;0.30;;
18661;SDS011;61528;49.456;11.098;2023-01-15T03:37:30;0.77;;;0.50;;
18661;SDS011;61528;49.456;11.098;2023-01-15T03:39:56;1.07;;;0.50;;
18661;SDS011;61528;49.456;11.098;2023-01-15T03:47:42;0.43;;;0.43;;
18661;SDS011;61528;49.456;11.098;2023-01-15T03:55:25;0.93;;;0.50;;
18661;SDS011;61528;49.456;11.098;2023-01-15T03:57:59;0.90;;;0.33;;
18661;SDS011;61528;49.456;11.098;2023-01-15T04:00:29;1.30;;;0.33;;
18661;SDS011;61528;49.456;11.098;2023-01-15T04:02:57;0.20;;;0.20;;
18661;SDS011;61528;49.456;11.098;2023-01-15T04:05:24;0.60;;;0.33;;
18661;SDS011;61528;49.456;11.098;2023-01-15T04:07:51;0.63;;;0.47;;
18661;SDS011;61528;49.456;11.098;2023-01-15T04:10:18;0.30;;;0.30;;
18661;SDS011;61528;49.456;11.098;2023-01-15T04:12:45;1.90;;;0.50;;
18661;SDS011;61528;49.456;11.098;2023-01-15T04:15:11;0.40;;;0.40;;
18661;SDS011;61528;49.456;11.098;2023-01-15T04:17:38;0.60;;;0.40;;
18661;SDS011;61528;49.456;11.098;2023-01-15T04:20:04;0.40;;;0.40;;
18661;SDS011;61528;49.456;11.098;2023-01-15T04:22:31;0.80;;;0.40;;
18661;SDS011;61528;49.456;11.098;2023-01-15T04:24:57;1.23;;;0.50;;
18661;SDS011;61528;49.456;11.098;2023-01-15T04:27:23;1.27;;;0.40;;
18661;SDS011;61528;49.456;11.098;2023-01-15T04:29:51;0.30;;;0.30;;
18661;SDS011;61528;49.456;11.098;2023-01-15T04:32:17;1.23;;;0.40;;
18661;SDS011;61528;49.456;11.098;2023-01-15T04:34:43;1.03;;;0.47;;
18661;SDS011;61528;49.456;11.098;2023-01-15T04:37:09;1.60;;;0.53;;
18661;SDS011;61528;49.456;11.098;2023-01-15T04:39:35;1.10;;;0.47;;
18661;SDS011;61528;49.456;11.098;2023-01-15T04:42:01;1.37;;;0.30;;
18661;SDS011;61528;49.456;11.098;2023-01-15T04:44:46;0.30;;;0.30;;
18661;SDS011;61528;49.456;11.098;2023-01-15T04:47:12;0.43;;;0.37;;
18661;SDS011;61528;49.456;11.098;2023-01-15T04:49:38;1.37;;;0.50;;
18661;SDS011;61528;49.456;11.098;2023-01-15T04:52:05;0.50;;;0.30;;
18661;SDS011;61528;49.456;11.098;2023-01-15T04:54:34;1.90;;;0.70;;
18661;SDS011;61528;49.456;11.098;2023-01-15T04:57:00;0.53;;;0.30;;
18661;SDS011;61528;49.456;11.098;2023-01-15T04:59:26;2.23;;;0.50;;
18661;SDS011;61528;49.456;11.098;2023-01-15T05:01:53;0.30;;;0.30;;
18661;SDS011;61528;49.456;11.098;2023-01-15T05:04:19;0.30;;;0.20;;
18661;SDS011;61528;49.456;11.098;2023-01-15T05:06:45;0.93;;;0.40;;
18661;SDS011;61528;49.456;11.098;2023-01-15T05:09:11;1.13;;;0.40;;
18661;SDS011;61528;49.456;11.098;2023-01-15T05:11:38;0.47;;;0.33;;
18661;SDS011;61528;49.456;11.098;2023-01-15T05:14:05;0.60;;;0.50;;
18661;SDS011;61528;49.456;11.098;2023-01-15T05:16:31;0.47;;;0.40;;
18661;SDS011;61528;49.456;11.098;2023-01-15T05:19:01;0.87;;;0.40;;
18661;SDS011;61528;49.456;11.098;2023-01-15T05:21:28;0.33;;;0.30;;
18661;SDS011;61528;49.456;11.098;2023-01-15T05:23:58;0.50;;;0.40;;
18661;SDS011;61528;49.456;11.098;2023-01-15T05:26:25;0.40;;;0.40;;
18661;SDS011;61528;49.456;11.098;2023-01-15T05:28:54;0.30;;;0.30;;
18661;SDS011;61528;49.456;11.098;2023-01-15T05:31:21;0.30;;;0.30;;
18661;SDS011;61528;49.456;11.098;2023-01-15T05:33:47;1.00;;;0.40;;
18661;SDS011;61528;49.456;11.098;2023-01-15T05:36:15;0.40;;;0.40;;
18661;SDS011;61528;49.456;11.098;2023-01-15T05:38:42;0.30;;;0.30;;
18661;SDS011;61528;49.456;11.098;2023-01-15T05:41:09;0.50;;;0.50;;
18661;SDS011;61528;49.456;11.098;2023-01-15T05:43:55;0.50;;;0.50;;
18661;SDS011;61528;49.456;11.098;2023-01-15T05:46:21;0.40;;;0.40;;
18661;SDS011;61528;49.456;11.098;2023-01-15T05:48:48;0.30;;;0.30;;
18661;SDS011;61528;49.456;11.098;2023-01-15T05:51:14;0.23;;;0.23;;
18661;SDS011;61528;49.456;11.098;2023-01-15T05:53:40;0.53;;;0.30;;
18661;SDS011;61528;49.456;11.098;2023-01-15T05:56:07;0.43;;;0.40;;
18661;SDS011;61528;49.456;11.098;2023-01-15T05:58:33;0.37;;;0.37;;
18661;SDS011;61528;49.456;11.098;2023-01-15T06:00:59;1.37;;;0.40;;
18661;SDS011;61528;49.456;11.098;2023-01-15T06:03:25;0.90;;;0.50;;
18661;SDS011;61528;49.456;11.098;2023-01-15T06:05:52;0.40;;;0.37;;
18661;SDS011;61528;49.456;11.098;2023-01-15T06:08:18;0.30;;;0.30;;
18661;SDS011;61528;49.456;11.098;2023-01-15T06:10:45;0.63;;;0.40;;
18661;SDS011;61528;49.456;11.098;2023-01-15T06:13:11;0.40;;;0.30;;
18661;SDS011;61528;49.456;11.098;2023-01-15T06:15:37;0.77;;;0.30;;
18661;SDS011;61528;49.456;11.098;2023-01-15T06:18:03;0.90;;;0.30;;
18661;SDS011;61528;49.456;11.098;2023-01-15T06:20:30;0.50;;;0.40;;
18661;SDS011;61528;49.456;11.098;2023-01-15T06:22:56;0.60;;;0.40;;
18661;SDS011;61528;49.456;11.098;2023-01-15T06:25:22;0.30;;;0.30;;
18661;SDS011;61528;49.456;11.098;2023-01-15T06:27:48;1.53;;;0.50;;
18661;SDS011;61528;49.456;11.098;2023-01-15T06:30:14;0.33;;;0.33;;
18661;SDS011;61528;49.456;11.098;2023-01-15T06:32:40;0.40;;;0.40;;
18661;SDS011;61528;49.456;11.098;2023-01-15T06:35:07;0.73;;;0.40;;
18661;SDS011;61528;49.456;11.098;2023-01-15T06:37:33;0.40;;;0.40;;
18661;SDS011;61528;49.456;11.098;2023-01-15T06:39:59;1.37;;;0.50;;
18661;SDS011;61528;49.456;11.098;2023-01-15T06:42:25;0.97;;;0.70;;
18661;SDS011;61528;49.456;11.098;2023-01-15T06:45:10;0.93;;;0.50;;
18661;SDS011;61528;49.456;11.098;2023-01-15T06:48:11;1.33;;;1.23;;
18661;SDS011;61528;49.456;11.098;2023-01-15T06:50:56;3.30;;;2.80;;
18661;SDS011;61528;49.456;11.098;2023-01-15T06:53:22;4.43;;;2.90;;
18661;SDS011;61528;49.456;11.098;2023-01-15T06:55:48;6.27;;;3.80;;
18661;SDS011;61528;49.456;11.098;2023-01-15T06:58:14;3.30;;;2.17;;
18661;SDS011;61528;49.456;11.098;2023-01-15T07:00:41;2.00;;;1.80;;
18661;SDS011;61528;49.456;11.098;2023-01-15T07:03:08;2.93;;;2.67;;
18661;SDS011;61528;49.456;11.098;2023-01-15T07:05:38;4.13;;;3.73;;
18661;SDS011;61528;49.456;11.098;2023-01-15T07:08:06;3.90;;;3.13;;
18661;SDS011;61528;49.456;11.098;2023-01-15T07:10:33;5.50;;;4.70;;
18661;SDS011;61528;49.456;11.098;2023-01-15T07:12:59;4.00;;;3.17;;
18661;SDS011;61528;49.456;11.098;2023-01-15T07:15:26;6.17;;;3.97;;
18661;SDS011;61528;49.456;11.098;2023-01-15T07:17:55;1.90;;;1.80;;
18661;SDS011;61528;49.456;11.098;2023-01-15T07:20:25;1.43;;;1.33;;
18661;SDS011;61528;49.456;11.098;2023-01-15T07:22:51;1.53;;;1.43;;
18661;SDS011;61528;49.456;11.098;2023-01-15T07:25:17;2.73;;;2.53;;
18661;SDS011;61528;49.456;11.098;2023-01-15T07:27:47;0.40;;;0.33;;
18661;SDS011;61528;49.456;11.098;2023-01-15T07:30:13;0.57;;;0.57;;
18661;SDS011;61528;49.456;11.098;2023-01-15T07:32:40;0.20;;;0.20;;
18661;SDS011;61528;49.456;11.098;2023-01-15T07:35:06;0.43;;;0.43;;
18661;SDS011;61528;49.456;11.098;2023-01-15T07:37:34;0.30;;;0.30;;
18661;SDS011;61528;49.456;11.098;2023-01-15T07:40:01;1.53;;;1.43;;
18661;SDS011;61528;49.456;11.098;2023-01-15T07:42:27;2.70;;;2.50;;
18661;SDS011;61528;49.456;11.098;2023-01-15T07:45:12;1.07;;;0.97;;
18661;SDS011;61528;49.456;11.098;2023-01-15T07:47:57;2.77;;;2.50;;
18661;SDS011;61528;49.456;11.098;2023-01-15T07:50:41;3.10;;;2.80;;
18661;SDS011;61528;49.456;11.098;2023-01-15T07:53:08;0.70;;;0.70;;
18661;SDS011;61528;49.456;11.098;2023-01-15T07:55:34;1.37;;;1.07;;
18661;SDS011;61528;49.456;11.098;2023-01-15T07:58:01;1.37;;;1.00;;
18661;SDS011;61528;49.456;11.098;2023-01-15T08:00:27;1.90;;;1.33;;
18661;SDS011;61528;49.456;11.098;2023-01-15T08:02:53;2.37;;;2.10;;
18661;SDS011;61528;49.456;11.098;2023-01-15T08:05:19;0.70;;;0.70;;
18661;SDS011;61528;49.456;11.098;2023-01-15T08:07:45;1.20;;;0.80;;
18661;SDS011;61528;49.456;11.098;2023-01-15T08:10:13;1.37;;;1.20;;
18661;SDS011;61528;49.456;11.098;2023-01-15T08:12:39;1.20;;;1.10;;
18661;SDS011;61528;49.456;11.098;2023-01-15T08:15:24;0.83;;;0.80;;
18661;SDS011;61528;49.456;11.098;2023-01-15T08:17:50;1.10;;;1.00;;
18661;SDS011;61528;49.456;11.098;2023-01-15T08:20:17;1.07;;;0.93;;
18661;SDS011;61528;49.456;11.098;2023-01-15T08:22:44;0.90;;;0.63;;
18661;SDS011;61528;49.456;11.098;2023-01-15T08:25:11;0.43;;;0.43;;
18661;SDS011;61528;49.456;11.098;2023-01-15T08:27:37;0.60;;;0.60;;
18661;SDS011;61528;49.456;11.098;2023-01-15T08:30:05;1.13;;;0.60;;
18661;SDS011;61528;49.456;11.098;2023-01-15T08:32:32;1.10;;;1.07;;
18661;SDS011;61528;49.456;11.098;2023-01-15T08:34:58;0.60;;;0.60;;
18661;SDS011;61528;49.456;11.098;2023-01-15T08:37:24;0.60;;;0.43;;
18661;SDS011;61528;49.456;11.098;2023-01-15T08:39:50;0.50;;;0.50;;
18661;SDS011;61528;49.456;11.098;2023-01-15T08:42:17;0.63;;;0.60;;
18661;SDS011;61528;49.456;11.098;2023-01-15T08:44:44;1.20;;;0.60;;
18661;SDS011;61528;49.456;11.098;2023-01-15T08:47:10;1.20;;;1.00;;
18661;SDS011;61528;49.456;11.098;2023-01-15T08:49:36;0.70;;;0.57;;
18661;SDS011;61528;49.456;11.098;2023-01-15T08:52:03;0.40;;;0.40;;
18661;SDS011;61528;49.456;11.098;2023-01-15T08:54:29;1.03;;;0.60;;
18661;SDS011;61528;49.456;11.098;2023-01-15T08:56:56;0.50;;;0.50;;
18661;SDS011;61528;49.456;11.098;2023-01-15T08:59:22;1.73;;;0.90;;
18661;SDS011;61528;49.456;11.098;2023-01-15T09:01:48;2.10;;;2.00;;
18661;SDS011;61528;49.456;11.098;2023-01-15T09:04:15;1.67;;;1.57;;
18661;SDS011;61528;49.456;11.098;2023-01-15T09:06:42;2.00;;;1.90;;
18661;SDS011;61528;49.456;11.098;2023-01-15T09:09:08;1.83;;;1.00;;
18661;SDS011;61528;49.456;11.098;2023-01-15T09:11:35;1.50;;;1.40;;
18661;SDS011;61528;49.456;11.098;2023-01-15T09:14:04;1.27;;;0.60;;
18661;SDS011;61528;49.456;11.098;2023-01-15T09:16:30;1.90;;;0.90;;
18661;SDS011;61528;49.456;11.098;2023-01-15T09:18:56;1.20;;;1.10;;
18661;SDS011;61528;49.456;11.098;2023-01-15T09:21:23;1.03;;;0.83;;
18661;SDS011;61528;49.456;11.098;2023-01-15T09:23:49;0.93;;;0.83;;
18661;SDS011;61528;49.456;11.098;2023-01-15T09:26:26;1.20;;;0.60;;
18661;SDS011;61528;49.456;11.098;2023-01-15T09:28:52;1.17;;;1.07;;
18661;SDS011;61528;49.456;11.098;2023-01-15T09:31:19;0.97;;;0.70;;
18661;SDS011;61528;49.456;11.098;2023-01-15T09:33:45;1.63;;;1.10;;
18661;SDS011;61528;49.456;11.098;2023-01-15T09:36:26;1.27;;;0.90;;
18661;SDS011;61528;49.456;11.098;2023-01-15T09:38:53;1.07;;;0.90;;
18661;SDS011;61528;49.456;11.098;2023-01-15T09:41:19;1.93;;;1.20;;
18661;SDS011;61528;49.456;11.098;2023-01-15T09:44:43;2.03;;;1.10;;
18661;SDS011;61528;49.456;11.098;2023-01-15T09:47:42;1.43;;;1.00;;
18661;SDS011;61528;49.456;11.098;2023-01-15T09:52:23;1.47;;;1.27;;
18661;SDS011;61528;49.456;11.098;2023-01-15T09:55:11;1.50;;;1.00;;
18661;SDS011;61528;49.456;11.098;2023-01-15T09:57:39;1.20;;;1.10;;
18661;SDS011;61528;49.456;11.098;2023-01-15T10:00:06;1.00;;;0.90;;
18661;SDS011;61528;49.456;11.098;2023-01-15T10:10:19;1.30;;;1.20;;
18661;SDS011;61528;49.456;11.098;2023-01-15T10:12:47;1.67;;;1.50;;
18661;SDS011;61528;49.456;11.098;2023-01-15T10:15:31;0.93;;;0.90;;
18661;SDS011;61528;49.456;11.098;2023-01-15T10:18:01;2.33;;;1.17;;
18661;SDS011;61528;49.456;11.098;2023-01-15T10:20:39;2.30;;;2.10;;
18661;SDS011;61528;49.456;11.098;2023-01-15T10:25:54;1.80;;;1.20;;
18661;SDS011;61528;49.456;11.098;2023-01-15T10:30:55;2.63;;;1.40;;
18661;SDS011;61528;49.456;11.098;2023-01-15T10:35:57;0.70;;;0.70;;
18661;SDS011;61528;49.456;11.098;2023-01-15T10:45:58;1.10;;;0.97;;
18661;SDS011;61528;49.456;11.098;2023-01-15T10:48:29;2.33;;;1.53;;
18661;SDS011;61528;49.456;11.098;2023-01-15T10:50:59;4.53;;;3.43;;
18661;SDS011;61528;49.456;11.098;2023-01-15T10:53:38;2.57;;;1.40;;
18661;SDS011;61528;49.456;11.098;2023-01-15T10:56:14;1.20;;;1.10;;
18661;SDS011;61528;49.456;11.098;2023-01-15T10:58:47;1.33;;;1.03;;
18661;SDS011;61528;49.456;11.098;2023-01-15T11:01:15;1.07;;;0.80;;
18661;SDS011;61528;49.456;11.098;2023-01-15T11:03:43;1.27;;;1.13;;
18661;SDS011;61528;49.456;11.098;2023-01-15T11:06:13;1.67;;;0.70;;
18661;SDS011;61528;49.456;11.098;2023-01-15T11:08:41;0.77;;;0.70;;
18661;SDS011;61528;49.456;11.098;2023-01-15T11:14:12;0.90;;;0.90;;
18661;SDS011;61528;49.456;11.098;2023-01-15T11:16:56;1.23;;;0.93;;
18661;SDS011;61528;49.456;11.098;2023-01-15T11:19:36;3.10;;;2.10;;
18661;SDS011;61528;49.456;11.098;2023-01-15T11:22:15;1.90;;;1.27;;
18661;SDS011;61528;49.456;11.098;2023-01-15T11:24:46;2.23;;;2.03;;
18661;SDS011;61528;49.456;11.098;2023-01-15T11:27:14;5.47;;;3.00;;
18661;SDS011;61528;49.456;11.098;2023-01-15T11:29:42;8.10;;;4.43;;
18661;SDS011;61528;49.456;11.098;2023-01-15T11:32:25;3.63;;;3.00;;
18661;SDS011;61528;49.456;11.098;2023-01-15T11:34:54;1.83;;;1.30;;
18661;SDS011;61528;49.456;11.098;2023-01-15T11:37:20;1.37;;;0.97;;
18661;SDS011;61528;49.456;11.098;2023-01-15T11:39:53;1.57;;;1.40;;
18661;SDS011;61528;49.456;11.098;2023-01-15T11:42:20;1.10;;;1.00;;
18661;SDS011;61528;49.456;11.098;2023-01-15T11:45:13;2.10;;;1.30;;
18661;SDS011;61528;49.456;11.098;2023-01-15T11:47:59;1.33;;;1.23;;
18661;SDS011;61528;49.456;11.098;2023-01-15T11:53:17;1.40;;;1.30;;
18661;SDS011;61528;49.456;11.098;2023-01-15T11:55:59;1.10;;;1.00;;
18661;SDS011;61528;49.456;11.098;2023-01-15T11:58:27;1.53;;;1.10;;
18661;SDS011;61528;49.456;11.098;2023-01-15T12:00:54;1.20;;;1.10;;
18661;SDS011;61528;49.456;11.098;2023-01-15T12:03:23;1.63;;;1.10;;
18661;SDS011;61528;49.456;11.098;2023-01-15T12:06:04;1.53;;;1.10;;
18661;SDS011;61528;49.456;11.098;2023-01-15T12:11:07;1.50;;;0.70;;
18661;SDS011;61528;49.456;11.098;2023-01-15T12:31:46;1.40;;;0.60;;
18661;SDS011;61528;49.456;11.098;2023-01-15T12:34:22;0.50;;;0.50;;
18661;SDS011;61528;49.456;11.098;2023-01-15T12:36:53;0.60;;;0.60;;
18661;SDS011;61528;49.456;11.098;2023-01-15T12:42:00;0.40;;;0.40;;
18661;SDS011;61528;49.456;11.098;2023-01-15T12:45:00;0.70;;;0.60;;
18661;SDS011;61528;49.456;11.098;2023-01-15T12:47:47;0.50;;;0.40;;
18661;SDS011;61528;49.456;11.098;2023-01-15T12:52:40;0.53;;;0.53;;
18661;SDS011;61528;49.456;11.098;2023-01-15T12:55:12;1.33;;;0.47;;
18661;SDS011;61528;49.456;11.098;2023-01-15T12:57:41;0.43;;;0.43;;
18661;SDS011;61528;49.456;11.098;2023-01-15T13:05:33;0.90;;;0.50;;
18661;SDS011;61528;49.456;11.098;2023-01-15T13:08:48;0.60;;;0.60;;
18661;SDS011;61528;49.456;11.098;2023-01-15T13:10:51;1.03;;;0.60;;
18661;SDS011;61528;49.456;11.098;2023-01-15T13:13:30;0.70;;;0.70;;
18661;SDS011;61528;49.456;11.098;2023-01-15T13:16:07;1.00;;;0.57;;
18661;SDS011;61528;49.456;11.098;2023-01-15T13:21:03;0.50;;;0.50;;
18661;SDS011;61528;49.456;11.098;2023-01-15T13:33:43;1.97;;;1.10;;
18661;SDS011;61528;49.456;11.098;2023-01-15T13:36:14;1.23;;;0.80;;
18661;SDS011;61528;49.456;11.098;2023-01-15T13:38:44;1.37;;;1.03;;
18661;SDS011;61528;49.456;11.098;2023-01-15T13:41:15;2.10;;;1.30;;
18661;SDS011;61528;49.456;11.098;2023-01-15T13:44:02;1.93;;;1.60;;
18661;SDS011;61528;49.456;11.098;2023-01-15T13:46:28;1.83;;;1.30;;
18661;SDS011;61528;49.456;11.098;2023-01-15T13:48:55;1.77;;;1.23;;
18661;SDS011;61528;49.456;11.098;2023-01-15T13:51:28;1.83;;;0.70;;
18661;SDS011;61528;49.456;11.098;2023-01-15T13:53:56;2.73;;;1.27;;
18661;SDS011;61528;49.456;11.098;2023-01-15T13:56:25;2.47;;;1.30;;
18661;SDS011;61528;49.456;11.098;2023-01-15T13:58:52;1.90;;;1.50;;
18661;SDS011;61528;49.456;11.098;2023-01-15T14:03:57;0.97;;;0.93;;
18661;SDS011;61528;49.456;11.098;2023-01-15T14:06:46;1.53;;;1.00;;
18661;SDS011;61528;49.456;11.098;2023-01-15T14:14:46;1.33;;;1.20;;
18661;SDS011;61528;49.456;11.098;2023-01-15T14:27:52;1.43;;;1.00;;
18661;SDS011;61528;49.456;11.098;2023-01-15T14:35:48;2.97;;;1.20;;
18661;SDS011;61528;49.456;11.098;2023-01-15T14:38:16;3.13;;;1.00;;
18661;SDS011;61528;49.456;11.098;2023-01-15T14:41:00;3.00;;;1.10;;
18661;SDS011;61528;49.456;11.098;2023-01-15T14:43:28;1.93;;;0.70;;
18661;SDS011;61528;49.456;11.098;2023-01-15T14:45:55;3.57;;;1.30;;
18661;SDS011;61528;49.456;11.098;2023-01-15T14:51:12;3.23;;;1.10;;
18661;SDS011;61528;49.456;11.098;2023-01-15T14:53:49;2.07;;;0.73;;
18661;SDS011;61528;49.456;11.098;2023-01-15T14:56:20;2.57;;;0.93;;
18661;SDS011;61528;49.456;11.098;2023-01-15T15:06:47;1.93;;;0.87;;
18661;SDS011;61528;49.456;11.098;2023-01-15T15:09:18;5.40;;;1.10;;
18661;SDS011;61528;49.456;11.098;2023-01-15T15:11:46;3.13;;;1.10;;
18661;SDS011;61528;49.456;11.098;2023-01-15T15:14:33;1.70;;;0.70;;
18661;SDS011;61528;49.456;11.098;2023-01-15T15:17:01;1.40;;;1.17;;
18661;SDS011;61528;49.456;11.098;2023-01-15T15:19:33;4.10;;;0.90;;
18661;SDS011;61528;49.456;11.098;2023-01-15T15:22:01;2.30;;;0.90;;
18661;SDS011;61528;49.456;11.098;2023-01-15T15:24:33;1.57;;;1.03;;
18661;SDS011;61528;49.456;11.098;2023-01-15T15:29:45;1.43;;;0.80;;
18661;SDS011;61528;49.456;11.098;2023-01-15T15:32:21;4.13;;;1.10;;
18661;SDS011;61528;49.456;11.098;2023-01-15T15:34:48;4.17;;;1.00;;
18661;SDS011;61528;49.456;11.098;2023-01-15T15:39:57;1.63;;;1.00;;
18661;SDS011;61528;49.456;11.098;2023-01-15T15:42:26;1.10;;;0.80;;
18661;SDS011;61528;49.456;11.098;2023-01-15T15:45:49;1.70;;;0.60;;
18661;SDS011;61528;49.456;11.098;2023-01-15T15:48:29;3.07;;;1.00;;
18661;SDS011;61528;49.456;11.098;2023-01-15T15:51:27;2.93;;;0.77;;
18661;SDS011;61528;49.456;11.098;2023-01-15T15:56:30;1.90;;;0.90;;
18661;SDS011;61528;49.456;11.098;2023-01-15T15:58:57;1.43;;;0.87;;
18661;SDS011;61528;49.456;11.098;2023-01-15T16:01:24;2.73;;;1.07;;
18661;SDS011;61528;49.456;11.098;2023-01-15T16:03:50;1.47;;;0.90;;
18661;SDS011;61528;49.456;11.098;2023-01-15T16:06:20;3.90;;;0.80;;
18661;SDS011;61528;49.456;11.098;2023-01-15T16:08:54;3.23;;;0.90;;
18661;SDS011;61528;49.456;11.098;2023-01-15T16:11:22;3.50;;;0.90;;
18661;SDS011;61528;49.456;11.098;2023-01-15T16:13:50;2.70;;;0.90;;
18661;SDS011;61528;49.456;11.098;2023-01-15T16:16:17;2.57;;;0.83;;
18661;SDS011;61528;49.456;11.098;2023-01-15T16:18:44;4.53;;;1.00;;
18661;SDS011;61528;49.456;11.098;2023-01-15T16:21:16;4.17;;;1.20;;
18661;SDS011;61528;49.456;11.098;2023-01-15T16:23:42;3.03;;;0.90;;
18661;SDS011;61528;49.456;11.098;2023-01-15T16:26:20;2.80;;;1.30;;
18661;SDS011;61528;49.456;11.098;2023-01-15T16:28:55;3.10;;;1.00;;
18661;SDS011;61528;49.456;11.098;2023-01-15T16:31:22;3.03;;;1.53;;
18661;SDS011;61528;49.456;11.098;2023-01-15T16:33:52;2.97;;;1.03;;
18661;SDS011;61528;49.456;11.098;2023-01-15T16:36:20;5.00;;;1.30;;
18661;SDS011;61528;49.456;11.098;2023-01-15T16:38:47;2.03;;;0.90;;
18661;SDS011;61528;49.456;11.098;2023-01-15T16:41:20;3.90;;;1.33;;
18661;SDS011;61528;49.456;11.098;2023-01-15T16:43:50;5.90;;;1.30;;
18661;SDS011;61528;49.456;11.098;2023-01-15T16:46:17;4.17;;;1.37;;
18661;SDS011;61528;49.456;11.098;2023-01-15T16:48:44;3.00;;;1.47;;
18661;SDS011;61528;49.456;11.098;2023-01-15T16:53:58;5.20;;;1.30;;
18661;SDS011;61528;49.456;11.098;2023-01-15T16:59:02;4.30;;;1.47;;
18661;SDS011;61528;49.456;11.098;2023-01-15T17:03:54;1.70;;;1.13;;
18661;SDS011;61528;49.456;11.098;2023-01-15T17:06:21;3.67;;;1.40;;
18661;SDS011;61528;49.456;11.098;2023-01-15T17:08:49;2.53;;;1.43;;
18661;SDS011;61528;49.456;11.098;2023-01-15T17:13:44;3.93;;;2.17;;
18661;SDS011;61528;49.456;11.098;2023-01-15T17:16:22;5.67;;;1.70;;
18661;SDS011;61528;49.456;11.098;2023-01-15T17:18:49;2.60;;;1.77;;
18661;SDS011;61528;49.456;11.098;2023-01-15T17:21:16;7.67;;;1.93;;
18661;SDS011;61528;49.456;11.098;2023-01-15T17:23:43;2.33;;;1.40;;
18661;SDS011;61528;49.456;11.098;2023-01-15T17:26:20;3.37;;;1.47;;